Centennial Airport
KAPA : now visible

Airfield :











YOU CAN JOIN US ON...

 
LOGIN :

Register | Disclaimer

   EN    FR    IT 

 









Legend :    VFR   Marginal VFR   IFR   Intensive IFR   Very Intensive IFR
Visi :
Ceiling :
>= 8 km
>= 3000ft
5 to 8 km
1000 to 3000 ft
1500m to 5 km
500 to 1000 ft
800 to 1500m
200 to 500 ft
< 800m
< 200 ft
Symbols :   Thunderstorms  Fog  Heavy snow  Heavy precipitations  Wind > 20 kt






- Airport Elevation : 5885 ft


KAPA - Centennial

CURRENT METAR :
  • 221153Z 29005KT 1 3/4SM -SN BR BKN009 OVC020 M02/M03 A3002 RMK AO2 SLP199 P0001 60006 70008 T10221033 11017 21022 56009

EXPIRED METARs :
  • 221142Z 30005KT 2 1/2SM -SN BR BKN008 OVC020 M02/M04 A3002 RMK AO2 P0001 T10221039
  • 221053Z 32004KT 3SM -SN BR SCT007 OVC016 M02/M04 A3002 RMK AO2 SLP201 P0000 T10221039
  • 220953Z 29004KT 3SM -SN BR OVC008 M02/M03 A3004 RMK AO2 SLP205 P0002 T10221033
  • 220935Z 28003KT 2SM -SN BR OVC008 M02/M03 A3004 RMK AO2 P0002 T10221033

TAF KAPA
Valid from the 22 at 12:00 until the 23 at 12:00 UTC


221122Z 2212/2312 VRB05KT 3SM -SN BR SCT007 OVC015
TEMPO 2212/2216 1SM -SN BR OVC007
FM221600 28007KT 5SM BR VCSH OVC008
FM221800 30007KT P6SM SCT008 OVC012
FM222000 33005KT P6SM FEW020 BKN050
FM222300 33005KT P6SM BKN080
FM230200 21006KT P6SM SCT080



MET'MAP, your aeronautical weather chart ! - Copyright ORBIFLY December 2007 - Disclaimer

ORBIFLY MET'MAP TEAM :

Programming & Development : Alexandra Zaïnal
Concept & Development : Baudouin d'Aumeries
Co-Development & Prog : Marc-Olivier Méhu
Technical & hardware support : Manuel Goepfert

Contact : metmap@orbifly.com




SOURCES & CREDITS :

   NOAA       Earth
Advisory